createdAt,value
2019-04-21T00:01:10.566Z,6.87
2019-04-21T00:03:43.016Z,6.78
2019-04-21T00:06:31.579Z,7.30
2019-04-21T00:09:02.652Z,6.77
2019-04-21T00:11:29.868Z,6.60
2019-04-21T00:13:52.546Z,7.15
2019-04-21T00:16:11.991Z,6.47
2019-04-21T00:18:47.898Z,6.63
2019-04-21T00:21:21.142Z,7.17
2019-04-21T00:23:58.991Z,6.97
2019-04-21T00:26:31.476Z,7.20
2019-04-21T00:29:03.997Z,6.67
2019-04-21T00:31:24.705Z,7.40
2019-04-21T00:33:41.616Z,6.93
2019-04-21T00:36:15.986Z,6.67
2019-04-21T00:39:09.612Z,7.03
2019-04-21T00:41:31.559Z,7.03
2019-04-21T00:43:55.368Z,6.73
2019-04-21T00:46:27.995Z,7.67
2019-04-21T00:48:57.447Z,6.63
2019-04-21T00:51:42.155Z,6.67
2019-04-21T00:54:06.917Z,7.23
2019-04-21T00:56:27.428Z,6.97
2019-04-21T00:58:59.733Z,6.83
2019-04-21T01:01:26.662Z,7.30
2019-04-21T01:04:05.312Z,6.80
2019-04-21T01:06:33.165Z,6.90
2019-04-21T01:08:59.538Z,6.23
2019-04-21T01:11:42.572Z,7.33
2019-04-21T01:14:07.035Z,6.50
2019-04-21T01:16:33.216Z,6.77
2019-04-21T01:19:03.585Z,6.77
2019-04-21T01:21:14.270Z,7.37
2019-04-21T01:23:40.274Z,6.30
2019-04-21T01:26:23.808Z,7.23
2019-04-21T01:28:58.371Z,6.40
2019-04-21T01:31:23.011Z,6.33
2019-04-21T01:34:06.918Z,7.40
2019-04-21T01:36:24.462Z,7.07
2019-04-21T01:39:02.162Z,7.37
2019-04-21T01:41:35.526Z,6.93
2019-04-21T01:43:57.565Z,7.27
2019-04-21T01:46:25.653Z,6.67
2019-04-21T01:48:54.244Z,7.30
2019-04-21T01:51:22.484Z,8.17
2019-04-21T01:54:03.991Z,7.17
2019-04-21T01:56:30.671Z,6.80
2019-04-21T01:58:48.247Z,7.10
2019-04-21T02:01:30.153Z,7.07
2019-04-21T02:04:18.000Z,8.13
2019-04-21T02:06:33.182Z,7.13
2019-04-21T02:08:57.982Z,7.33
2019-04-21T02:11:31.309Z,6.80
2019-04-21T02:14:07.397Z,7.40
2019-04-21T02:16:28.200Z,7.27
2019-04-21T02:18:54.463Z,6.90
2019-04-21T02:21:21.821Z,7.20
2019-04-21T02:24:05.384Z,7.53
2019-04-21T02:26:33.560Z,7.33
2019-04-21T02:29:01.948Z,7.53
2019-04-21T02:34:08.812Z,7.47
2019-04-21T02:37:00.873Z,7.47
2019-04-21T02:39:13.253Z,7.63
2019-04-21T02:41:51.170Z,8.00
2019-04-21T02:44:10.389Z,7.67
2019-04-21T02:49:17.203Z,7.97
2019-04-21T02:56:48.859Z,8.10
2019-04-21T02:59:22.831Z,7.53
2019-04-21T03:04:13.262Z,8.60
2019-04-21T03:06:45.344Z,8.20
2019-04-21T03:09:09.535Z,8.77
2019-04-21T03:11:45.537Z,8.17
2019-04-21T03:16:31.184Z,8.50
2019-04-21T03:19:17.607Z,8.43
2019-04-21T03:21:39.760Z,8.33
2019-04-21T03:24:03.927Z,8.80
2019-04-21T03:29:19.750Z,8.60
2019-04-21T03:32:13.934Z,8.97
2019-04-21T03:39:20.159Z,9.63
2019-04-21T03:42:14.917Z,8.97
2019-04-21T03:46:51.870Z,8.87
2019-04-21T03:54:16.086Z,10.00
2019-04-21T03:59:11.568Z,9.43
2019-04-21T04:01:50.628Z,10.00
2019-04-21T04:04:30.024Z,10.00
2019-04-21T04:06:56.435Z,9.57
2019-04-21T04:09:37.513Z,9.73
2019-04-21T04:14:23.372Z,10.70
2019-04-21T04:19:18.021Z,10.03
2019-04-21T04:21:56.822Z,10.07
2019-04-21T04:24:24.413Z,9.37
2019-04-21T04:26:45.576Z,9.83
2019-04-21T04:31:55.375Z,10.60
2019-04-21T04:34:24.793Z,10.00
2019-04-21T04:39:43.120Z,10.40
2019-04-21T04:41:52.759Z,9.90
2019-04-21T04:44:24.869Z,10.63
2019-04-21T04:46:55.761Z,10.33
2019-04-21T04:49:25.248Z,9.67
2019-04-21T04:54:32.521Z,10.57
2019-04-21T04:56:47.748Z,10.20
2019-04-21T04:59:33.457Z,11.40
2019-04-21T05:01:59.677Z,10.27
2019-04-21T05:04:28.281Z,10.70
2019-04-21T05:09:30.797Z,10.90
2019-04-21T05:14:18.307Z,10.37
2019-04-21T05:21:48.364Z,10.43
2019-04-21T05:24:08.205Z,11.70
2019-04-21T05:26:33.174Z,10.53
2019-04-21T05:29:01.799Z,10.63
2019-04-21T05:31:44.326Z,12.07
2019-04-21T05:34:10.825Z,12.27
2019-04-21T05:36:44.572Z,11.63
2019-04-21T05:39:08.918Z,11.77
2019-04-21T05:41:31.286Z,10.93
2019-04-21T05:44:09.892Z,11.63
2019-04-21T05:49:22.000Z,11.23
2019-04-21T05:54:39.619Z,10.97
2019-04-21T05:57:02.025Z,11.50
2019-04-21T05:59:35.519Z,11.43
2019-04-21T06:02:06.090Z,11.47
2019-04-21T06:04:52.631Z,11.93
2019-04-21T06:07:04.790Z,12.70
2019-04-21T06:09:35.104Z,12.17
2019-04-21T06:12:03.773Z,11.50
2019-04-21T06:14:37.235Z,12.80
2019-04-21T06:17:02.187Z,12.63
2019-04-21T06:19:41.394Z,12.50
2019-04-21T06:22:01.691Z,12.40
2019-04-21T06:24:32.617Z,12.73
2019-04-21T06:29:28.574Z,12.50
2019-04-21T06:32:21.982Z,14.17
2019-04-21T06:37:34.904Z,12.67
2019-04-21T06:39:52.150Z,13.70
2019-04-21T06:42:09.160Z,14.03
2019-04-21T06:44:48.374Z,13.57
2019-04-21T06:47:16.312Z,13.30
2019-04-21T06:52:44.829Z,13.57
2019-04-21T06:55:00.735Z,13.13
2019-04-21T06:57:24.433Z,14.37
2019-04-21T06:59:49.998Z,14.50
2019-04-21T07:02:36.099Z,13.80
2019-04-21T07:04:54.733Z,12.87
2019-04-21T07:07:18.181Z,14.30
2019-04-21T07:09:52.951Z,13.70
2019-04-21T07:12:19.157Z,13.87
2019-04-21T07:14:53.045Z,13.97
2019-04-21T07:17:24.677Z,13.27
2019-04-21T07:19:55.946Z,13.70
2019-04-21T07:22:28.602Z,14.30
2019-04-21T07:24:54.039Z,14.07
2019-04-21T07:27:22.298Z,14.33
2019-04-21T07:29:55.626Z,14.75
2019-04-21T07:32:20.619Z,15.33
2019-04-21T07:37:30.535Z,14.33
2019-04-21T07:39:54.528Z,14.20
2019-04-21T07:42:23.873Z,14.45
2019-04-21T07:44:52.269Z,13.62
2019-04-21T07:47:26.801Z,13.30
2019-04-21T07:52:29.031Z,14.23
2019-04-21T07:55:16.725Z,14.58
2019-04-21T07:57:23.446Z,14.40
2019-04-21T08:02:29.389Z,14.73
2019-04-21T08:07:47.999Z,15.00
2019-04-21T08:10:07.721Z,15.25
2019-04-21T08:12:40.817Z,14.93
2019-04-21T08:15:15.510Z,15.13
2019-04-21T08:20:09.250Z,15.32
2019-04-21T08:22:43.184Z,15.28
2019-04-21T08:25:11.782Z,15.32
2019-04-21T08:27:44.713Z,15.98
2019-04-21T08:30:11.542Z,16.82
2019-04-21T08:33:02.397Z,15.45
2019-04-21T08:37:48.303Z,14.53
2019-04-21T08:40:26.778Z,15.32
2019-04-21T08:42:50.811Z,15.48
2019-04-21T08:48:00.398Z,14.98
2019-04-21T08:50:25.360Z,15.28
2019-04-21T08:55:38.035Z,16.30
2019-04-21T09:00:43.206Z,15.75
2019-04-21T09:03:06.802Z,16.20
2019-04-21T09:05:35.685Z,15.75
2019-04-21T09:08:10.572Z,15.85
2019-04-21T09:10:35.520Z,15.75
2019-04-21T09:13:04.378Z,16.05
2019-04-21T09:15:38.153Z,16.50
2019-04-21T09:18:04.877Z,15.28
2019-04-21T09:20:38.740Z,15.23
2019-04-21T09:23:06.728Z,16.02
2019-04-21T09:25:40.594Z,15.48
2019-04-21T09:28:07.034Z,15.23
2019-04-21T09:30:17.604Z,15.85
2019-04-21T09:32:51.649Z,14.73
2019-04-21T09:35:18.818Z,15.58
2019-04-21T09:37:56.188Z,15.78
2019-04-21T09:40:29.082Z,15.78
2019-04-21T09:42:55.965Z,15.35
2019-04-21T09:45:17.781Z,15.28
2019-04-21T09:47:57.206Z,15.00
2019-04-21T09:50:17.502Z,15.32
2019-04-21T09:52:54.504Z,14.80
2019-04-21T09:55:21.555Z,12.73
2019-04-21T09:57:53.621Z,13.48
2019-04-21T10:00:22.439Z,13.38
2019-04-21T10:02:56.776Z,12.37
2019-04-21T10:05:16.974Z,11.95
2019-04-21T10:07:46.856Z,11.45
2019-04-21T10:10:17.258Z,10.10
2019-04-21T10:12:47.754Z,10.93
2019-04-21T10:15:16.712Z,11.12
2019-04-21T10:17:47.429Z,10.55
2019-04-21T10:20:17.147Z,11.03
2019-04-21T10:22:47.098Z,11.33
2019-04-21T10:25:17.036Z,10.98
2019-04-21T10:27:47.284Z,11.57
2019-04-21T10:30:17.251Z,11.38
2019-04-21T10:32:48.359Z,12.00
2019-04-21T10:35:20.465Z,11.35
2019-04-21T10:38:01.252Z,11.33
2019-04-21T10:40:18.019Z,11.95
2019-04-21T10:42:48.135Z,10.95
2019-04-21T10:45:18.892Z,11.03
2019-04-21T10:47:47.438Z,11.05
2019-04-21T10:50:18.374Z,11.88
2019-04-21T10:52:48.988Z,11.05
2019-04-21T10:55:36.719Z,11.63
2019-04-21T10:57:48.367Z,11.70
2019-04-21T11:00:18.801Z,10.95
2019-04-21T11:02:48.825Z,11.55
2019-04-21T11:05:18.786Z,12.80
2019-04-21T11:08:01.129Z,12.40
2019-04-21T11:10:18.582Z,11.95
2019-04-21T11:12:48.846Z,12.60
2019-04-21T11:15:19.170Z,11.70
2019-04-21T11:17:50.541Z,11.38
2019-04-21T11:20:19.275Z,12.58
2019-04-21T11:22:49.479Z,12.45
2019-04-21T11:25:20.059Z,12.85
2019-04-21T11:27:49.375Z,12.50
2019-04-21T11:30:20.038Z,12.85
2019-04-21T11:32:51.027Z,11.65
2019-04-21T11:35:19.543Z,12.82
2019-04-21T11:37:50.308Z,13.05
2019-04-21T11:40:21.557Z,13.08
2019-04-21T11:42:49.613Z,13.40
2019-04-21T11:48:08.176Z,12.65
2019-04-21T11:50:37.185Z,12.47
2019-04-21T11:53:08.330Z,12.20
2019-04-21T12:00:55.822Z,12.90
2019-04-21T12:03:25.683Z,12.33
2019-04-21T12:05:57.060Z,11.38
2019-04-21T12:08:34.350Z,10.78
2019-04-21T12:10:57.612Z,11.35
2019-04-21T12:13:26.118Z,11.28
2019-04-21T12:15:57.160Z,11.30
2019-04-21T12:18:28.169Z,10.35
2019-04-21T12:20:55.957Z,10.63
2019-04-21T12:23:26.861Z,10.40
2019-04-21T12:25:56.947Z,11.30
2019-04-21T12:28:25.965Z,11.65
2019-04-21T12:30:56.080Z,10.90
2019-04-21T12:33:26.008Z,10.35
2019-04-21T12:35:56.067Z,9.23
2019-04-21T12:38:35.375Z,9.33
2019-04-21T12:40:56.918Z,10.38
2019-04-21T12:43:26.458Z,9.53
2019-04-21T12:45:56.201Z,9.75
2019-04-21T12:48:26.278Z,9.38
2019-04-21T12:50:57.551Z,9.43
2019-04-21T12:53:27.579Z,11.68
2019-04-21T12:55:57.888Z,11.53
2019-04-21T12:58:26.659Z,11.50
2019-04-21T13:03:37.534Z,11.00
2019-04-21T13:06:07.512Z,10.55
2019-04-21T13:08:45.616Z,10.48
2019-04-21T13:11:06.840Z,10.55
2019-04-21T13:13:37.649Z,9.93
2019-04-21T13:16:07.346Z,9.70
2019-04-21T13:18:37.465Z,9.35
2019-04-21T13:21:07.261Z,10.58
2019-04-21T13:23:36.997Z,10.10
2019-04-21T13:26:07.883Z,10.58
2019-04-21T13:28:37.541Z,11.83
2019-04-21T13:31:06.636Z,12.58
2019-04-21T13:33:37.705Z,11.35
2019-04-21T13:36:07.655Z,10.70
2019-04-21T13:38:45.314Z,10.45
2019-04-21T13:41:24.495Z,11.48
2019-04-21T13:43:37.178Z,11.90
2019-04-21T13:46:08.046Z,11.95
2019-04-21T13:48:37.128Z,10.90
2019-04-21T13:51:07.212Z,11.88
2019-04-21T13:53:37.911Z,11.57
2019-04-21T13:56:08.896Z,11.88
2019-04-21T13:58:38.002Z,11.65
2019-04-21T14:01:07.758Z,10.82
2019-04-21T14:03:37.854Z,10.60
2019-04-21T14:06:08.544Z,11.90
2019-04-21T14:08:41.624Z,11.55
2019-04-21T14:11:09.223Z,11.25
2019-04-21T14:16:18.177Z,10.38
2019-04-21T14:18:47.878Z,11.38
2019-04-21T14:21:18.887Z,10.03
2019-04-21T14:23:51.258Z,10.90
2019-04-21T14:26:18.310Z,11.50
2019-04-21T14:28:49.173Z,10.65
2019-04-21T14:31:17.856Z,10.60
2019-04-21T14:33:48.060Z,10.25
2019-04-21T14:36:18.868Z,9.83
2019-04-21T14:38:48.496Z,9.88
2019-04-21T14:41:18.439Z,9.85
2019-04-21T14:43:48.367Z,10.03
2019-04-21T14:46:19.429Z,10.08
2019-04-21T14:48:48.806Z,9.50
2019-04-21T14:51:18.912Z,9.90
2019-04-21T14:53:49.847Z,9.00
2019-04-21T14:56:19.369Z,8.55
2019-04-21T14:58:48.852Z,9.05
2019-04-21T15:01:19.826Z,11.90
2019-04-21T15:03:50.025Z,9.55
2019-04-21T15:06:19.016Z,9.88
2019-04-21T15:08:49.249Z,9.08
2019-04-21T15:11:20.003Z,9.63
2019-04-21T15:13:50.037Z,9.25
2019-04-21T15:16:20.772Z,8.83
2019-04-21T15:18:50.618Z,8.70
2019-04-21T15:21:20.002Z,9.58
2019-04-21T15:23:50.739Z,10.00
2019-04-21T15:26:20.166Z,9.00
2019-04-21T15:28:51.007Z,8.75
2019-04-21T15:31:29.842Z,9.13
2019-04-21T15:33:49.972Z,9.43
2019-04-21T15:36:21.001Z,7.47
2019-04-21T15:41:30.199Z,7.87
2019-04-21T15:46:39.958Z,8.23
2019-04-21T15:49:11.167Z,8.00
2019-04-21T15:51:40.076Z,7.20
2019-04-21T15:54:10.948Z,7.00
2019-04-21T15:56:40.758Z,7.72
2019-04-21T15:59:10.512Z,7.87
2019-04-21T16:01:40.825Z,7.17
2019-04-21T16:04:10.738Z,6.60
2019-04-21T16:06:41.606Z,7.17
2019-04-21T16:09:15.049Z,7.50
2019-04-21T16:11:41.925Z,8.35
2019-04-21T16:14:10.361Z,7.33
2019-04-21T16:16:41.218Z,8.78
2019-04-21T16:19:10.639Z,6.90
2019-04-21T16:21:42.832Z,6.62
2019-04-21T16:24:10.480Z,6.28
2019-04-21T16:26:40.560Z,6.20
2019-04-21T16:31:51.140Z,7.37
2019-04-21T16:36:59.680Z,5.80
2019-04-21T16:39:29.641Z,6.35
2019-04-21T16:42:00.424Z,6.20
2019-04-21T16:44:31.304Z,5.55
2019-04-21T16:47:01.331Z,5.40
2019-04-21T16:49:31.647Z,5.35
2019-04-21T16:54:40.233Z,5.10
2019-04-21T16:57:10.201Z,5.20
2019-04-21T16:59:40.503Z,6.08
2019-04-21T17:02:10.467Z,5.33
2019-04-21T17:04:40.401Z,4.90
2019-04-21T17:09:50.652Z,4.10
2019-04-21T17:12:20.669Z,5.87
2019-04-21T17:15:07.467Z,4.40
2019-04-21T17:17:43.361Z,7.60
2019-04-21T17:19:53.812Z,4.95
2019-04-21T17:22:19.727Z,4.90
2019-04-21T17:24:50.520Z,5.30
2019-04-21T17:27:20.705Z,4.92
2019-04-21T17:29:50.629Z,4.10
2019-04-21T17:32:20.453Z,4.28
2019-04-21T17:34:50.069Z,4.20
2019-04-21T17:37:22.025Z,4.20
2019-04-21T17:42:36.324Z,4.12
2019-04-21T17:44:59.418Z,3.87
2019-04-21T17:47:42.694Z,4.00
2019-04-21T17:50:02.609Z,4.08
2019-04-21T17:52:35.199Z,4.20
2019-04-21T17:55:09.459Z,3.70
2019-04-21T17:57:48.500Z,4.05
2019-04-21T18:00:25.855Z,3.62
2019-04-21T18:02:48.956Z,3.95
2019-04-21T18:07:54.756Z,4.05
2019-04-21T18:10:27.698Z,4.28
2019-04-21T18:12:49.156Z,4.40
2019-04-21T18:15:32.479Z,4.37
2019-04-21T18:17:40.473Z,4.80
2019-04-21T18:20:10.071Z,4.83
2019-04-21T18:25:33.229Z,4.50
2019-04-21T18:27:50.425Z,4.00
2019-04-21T18:30:42.355Z,4.45
2019-04-21T18:33:18.000Z,3.98
2019-04-21T18:35:44.719Z,4.65
2019-04-21T18:38:18.478Z,3.95
2019-04-21T18:46:13.589Z,4.30
2019-04-21T18:48:32.843Z,4.72
2019-04-21T18:50:58.906Z,4.40
2019-04-21T18:53:35.259Z,4.75
2019-04-21T18:55:59.415Z,4.50
2019-04-21T18:58:22.305Z,4.95
2019-04-21T19:00:53.052Z,4.87
2019-04-21T19:06:08.827Z,4.62
2019-04-21T19:11:28.292Z,4.97
2019-04-21T19:14:15.855Z,4.92
2019-04-21T19:16:38.750Z,4.08
2019-04-21T19:19:09.998Z,4.53
2019-04-21T19:21:25.387Z,4.35
2019-04-21T19:26:49.693Z,3.98
2019-04-21T19:29:11.158Z,4.05
2019-04-21T19:34:09.267Z,3.87
2019-04-21T19:36:31.367Z,3.80
2019-04-21T19:39:07.636Z,3.90
2019-04-21T19:41:43.145Z,3.52
2019-04-21T19:44:17.505Z,3.40
2019-04-21T19:49:36.492Z,3.85
2019-04-21T19:51:50.335Z,4.00
2019-04-21T19:54:19.156Z,2.95
2019-04-21T19:56:40.846Z,3.10
2019-04-21T19:59:11.858Z,2.98
2019-04-21T20:01:39.669Z,2.90
2019-04-21T20:07:01.125Z,3.20
2019-04-21T20:09:37.051Z,2.92
2019-04-21T20:12:03.678Z,2.87
2019-04-21T20:14:46.647Z,2.65
2019-04-21T20:17:06.391Z,2.75
2019-04-21T20:19:22.576Z,2.33
2019-04-21T20:21:51.123Z,2.45
2019-04-21T20:24:25.134Z,2.87
2019-04-21T20:27:01.280Z,2.27
2019-04-21T20:29:42.039Z,2.30
2019-04-21T20:32:08.476Z,2.70
2019-04-21T20:37:20.694Z,2.30
2019-04-21T20:39:39.296Z,2.87
2019-04-21T20:42:15.637Z,3.50
2019-04-21T20:44:52.649Z,3.27
2019-04-21T20:47:12.908Z,3.60
2019-04-21T20:49:38.608Z,4.30
2019-04-21T20:52:18.745Z,4.08
2019-04-21T20:54:45.188Z,3.65
2019-04-21T20:57:18.063Z,3.67
2019-04-21T20:59:43.919Z,3.58
2019-04-21T21:02:17.665Z,3.15
2019-04-21T21:07:40.240Z,3.00
2019-04-21T21:10:00.404Z,3.02
2019-04-21T21:20:16.368Z,3.08
2019-04-21T21:22:39.375Z,3.05
2019-04-21T21:27:42.260Z,2.50
2019-04-21T21:30:16.092Z,2.72
2019-04-21T21:32:44.875Z,2.92
2019-04-21T21:35:14.003Z,2.40
2019-04-21T21:40:28.951Z,2.58
2019-04-21T21:42:43.427Z,2.62
2019-04-21T21:45:15.994Z,2.65
2019-04-21T21:47:54.712Z,2.77
2019-04-21T21:50:19.921Z,2.75
2019-04-21T21:52:47.838Z,2.52
2019-04-21T21:55:09.730Z,2.50
2019-04-21T21:57:44.354Z,2.62
2019-04-21T22:00:12.393Z,2.30
2019-04-21T22:02:45.327Z,2.35
2019-04-21T22:05:14.295Z,2.37
2019-04-21T22:07:38.850Z,2.37
2019-04-21T22:10:08.688Z,2.70
2019-04-21T22:12:48.470Z,2.52
2019-04-21T22:18:07.531Z,2.12
2019-04-21T22:20:37.351Z,2.50
2019-04-21T22:22:56.351Z,2.70
2019-04-21T22:25:24.274Z,3.27
2019-04-21T22:27:48.728Z,2.87
2019-04-21T22:30:24.760Z,2.92
2019-04-21T22:32:55.292Z,2.40
2019-04-21T22:35:28.601Z,2.50
2019-04-21T22:37:57.064Z,2.67
2019-04-21T22:40:30.007Z,2.65
2019-04-21T22:42:59.299Z,2.95
2019-04-21T22:45:17.780Z,2.87
2019-04-21T22:47:49.300Z,3.00
2019-04-21T22:53:09.706Z,2.80
2019-04-21T22:55:37.110Z,3.20
2019-04-21T22:58:05.622Z,2.83
2019-04-21T23:03:19.326Z,2.83
2019-04-21T23:05:48.174Z,3.25
2019-04-21T23:08:17.042Z,2.90
2019-04-21T23:13:25.941Z,3.20
2019-04-21T23:15:57.647Z,2.72
2019-04-21T23:18:40.039Z,2.97
2019-04-21T23:21:10.152Z,2.67
2019-04-21T23:23:44.113Z,2.77
2019-04-21T23:26:15.932Z,2.87
2019-04-21T23:28:45.533Z,2.98
2019-04-21T23:31:21.436Z,2.80
2019-04-21T23:33:25.738Z,2.70
2019-04-21T23:36:02.625Z,2.70
2019-04-21T23:38:29.224Z,2.67
2019-04-21T23:40:58.604Z,2.60
2019-04-21T23:43:28.242Z,3.10
2019-04-21T23:48:50.043Z,2.93
2019-04-21T23:51:15.945Z,2.90
2019-04-21T23:53:35.269Z,3.00
2019-04-21T23:56:05.351Z,3.20
